sensor_id;sensor_type;location;lat;lon;timestamp;pressure;altitude;pressure_sealevel;temperature;humidity
44825;BME280;30542;47.928;2.138;2023-02-23T00:03:53;100165.28;;;19.49;53.27
44825;BME280;30542;47.928;2.138;2023-02-23T00:08:54;100174.63;;;19.47;53.10
44825;BME280;30542;47.928;2.138;2023-02-23T00:13:54;100175.94;;;19.44;53.39
44825;BME280;30542;47.928;2.138;2023-02-23T00:18:57;100172.75;;;19.42;53.09
44825;BME280;30542;47.928;2.138;2023-02-23T00:24:10;100170.59;;;19.39;53.31
44825;BME280;30542;47.928;2.138;2023-02-23T00:29:24;100165.25;;;19.34;53.34
44825;BME280;30542;47.928;2.138;2023-02-23T00:34:24;100176.72;;;19.34;53.12
44825;BME280;30542;47.928;2.138;2023-02-23T00:39:25;100173.78;;;19.31;53.20
44825;BME280;30542;47.928;2.138;2023-02-23T00:44:28;100176.72;;;19.29;52.92
44825;BME280;30542;47.928;2.138;2023-02-23T00:49:28;100167.06;;;19.28;53.00
44825;BME280;30542;47.928;2.138;2023-02-23T00:54:29;100171.38;;;19.24;53.29
44825;BME280;30542;47.928;2.138;2023-02-23T00:59:29;100173.22;;;19.24;52.94
44825;BME280;30542;47.928;2.138;2023-02-23T01:04:29;100179.09;;;19.21;52.94
44825;BME280;30542;47.928;2.138;2023-02-23T01:09:30;100182.00;;;19.19;53.07
44825;BME280;30542;47.928;2.138;2023-02-23T01:14:31;100171.88;;;19.16;53.39
44825;BME280;30542;47.928;2.138;2023-02-23T01:19:31;100169.44;;;19.15;53.10
44825;BME280;30542;47.928;2.138;2023-02-23T01:24:33;100174.25;;;19.12;53.38
44825;BME280;30542;47.928;2.138;2023-02-23T01:29:33;100170.50;;;19.08;53.17
44825;BME280;30542;47.928;2.138;2023-02-23T01:34:34;100169.69;;;19.08;52.98
44825;BME280;30542;47.928;2.138;2023-02-23T01:39:34;100157.66;;;19.05;52.95
44825;BME280;30542;47.928;2.138;2023-02-23T01:49:39;100159.25;;;19.01;52.84
44825;BME280;30542;47.928;2.138;2023-02-23T01:54:47;100152.31;;;19.00;53.00
44825;BME280;30542;47.928;2.138;2023-02-23T01:59:51;100147.78;;;19.01;53.11
44825;BME280;30542;47.928;2.138;2023-02-23T02:04:52;100142.69;;;18.99;52.72
44825;BME280;30542;47.928;2.138;2023-02-23T02:09:57;100138.41;;;18.98;53.09
44825;BME280;30542;47.928;2.138;2023-02-23T02:15:12;100126.13;;;18.97;52.78
44825;BME280;30542;47.928;2.138;2023-02-23T02:47:37;100119.16;;;18.86;52.52
44825;BME280;30542;47.928;2.138;2023-02-23T02:52:47;100127.44;;;18.84;52.81
44825;BME280;30542;47.928;2.138;2023-02-23T02:57:51;100120.72;;;18.82;52.60
44825;BME280;30542;47.928;2.138;2023-02-23T03:02:52;100122.34;;;18.83;52.92
44825;BME280;30542;47.928;2.138;2023-02-23T03:19:33;100115.19;;;18.99;52.48
44825;BME280;30542;47.928;2.138;2023-02-23T03:25:06;100109.91;;;19.09;52.22
44825;BME280;30542;47.928;2.138;2023-02-23T03:30:45;100123.03;;;19.21;51.94
44825;BME280;30542;47.928;2.138;2023-02-23T03:36:18;100105.41;;;19.25;51.99
44825;BME280;30542;47.928;2.138;2023-02-23T03:41:39;100107.56;;;19.38;51.90
44825;BME280;30542;47.928;2.138;2023-02-23T03:47:03;100102.50;;;19.47;51.38
44825;BME280;30542;47.928;2.138;2023-02-23T03:52:35;100100.34;;;19.49;51.20
44825;BME280;30542;47.928;2.138;2023-02-23T03:57:59;100102.78;;;19.55;50.90
44825;BME280;30542;47.928;2.138;2023-02-23T04:03:20;100105.47;;;19.66;50.91
44825;BME280;30542;47.928;2.138;2023-02-23T04:08:41;100116.19;;;19.71;50.73
44825;BME280;30542;47.928;2.138;2023-02-23T04:14:03;100117.78;;;19.67;50.52
44825;BME280;30542;47.928;2.138;2023-02-23T04:19:05;100127.38;;;19.78;50.34
44825;BME280;30542;47.928;2.138;2023-02-23T04:24:05;100130.09;;;19.83;50.16
44825;BME280;30542;47.928;2.138;2023-02-23T04:29:06;100135.97;;;19.85;50.19
44825;BME280;30542;47.928;2.138;2023-02-23T04:34:06;100135.44;;;19.88;50.15
44825;BME280;30542;47.928;2.138;2023-02-23T04:39:07;100137.56;;;19.91;49.96
44825;BME280;30542;47.928;2.138;2023-02-23T04:44:07;100138.09;;;19.93;49.88
44825;BME280;30542;47.928;2.138;2023-02-23T04:49:08;100144.00;;;19.95;49.67
44825;BME280;30542;47.928;2.138;2023-02-23T04:54:08;100130.09;;;19.88;49.92
44825;BME280;30542;47.928;2.138;2023-02-23T04:59:09;100139.16;;;19.97;49.46
44825;BME280;30542;47.928;2.138;2023-02-23T05:04:09;100131.69;;;19.99;49.57
44825;BME280;30542;47.928;2.138;2023-02-23T05:09:10;100136.75;;;20.01;49.32
44825;BME280;30542;47.928;2.138;2023-02-23T05:14:10;100132.50;;;20.00;49.43
44825;BME280;30542;47.928;2.138;2023-02-23T05:19:11;100138.91;;;20.04;49.62
44825;BME280;30542;47.928;2.138;2023-02-23T05:24:12;100142.91;;;20.06;49.14
44825;BME280;30542;47.928;2.138;2023-02-23T05:29:12;100143.69;;;20.07;49.41
44825;BME280;30542;47.928;2.138;2023-02-23T05:34:13;100145.03;;;20.09;49.15
44825;BME280;30542;47.928;2.138;2023-02-23T05:39:15;100154.66;;;20.10;49.08
44825;BME280;30542;47.928;2.138;2023-02-23T05:44:16;100155.22;;;20.13;49.07
44825;BME280;30542;47.928;2.138;2023-02-23T05:49:16;100149.88;;;20.13;48.95
44825;BME280;30542;47.928;2.138;2023-02-23T05:54:17;100144.22;;;20.14;49.07
44825;BME280;30542;47.928;2.138;2023-02-23T05:59:17;100144.78;;;20.16;48.71
44825;BME280;30542;47.928;2.138;2023-02-23T06:04:17;100145.03;;;20.15;48.87
44825;BME280;30542;47.928;2.138;2023-02-23T06:09:18;100150.94;;;20.17;48.79
44825;BME280;30542;47.928;2.138;2023-02-23T06:14:18;100147.97;;;20.18;48.74
44825;BME280;30542;47.928;2.138;2023-02-23T06:19:19;100152.53;;;20.18;48.40
44825;BME280;30542;47.928;2.138;2023-02-23T06:24:20;100146.66;;;20.16;48.49
44825;BME280;30542;47.928;2.138;2023-02-23T06:29:20;100152.53;;;20.18;48.82
44825;BME280;30542;47.928;2.138;2023-02-23T06:34:21;100155.19;;;20.18;48.88
44825;BME280;30542;47.928;2.138;2023-02-23T06:39:21;100153.06;;;20.20;48.72
44825;BME280;30542;47.928;2.138;2023-02-23T06:44:22;100156.78;;;20.19;48.83
44825;BME280;30542;47.928;2.138;2023-02-23T06:49:22;100146.09;;;20.19;48.80
44825;BME280;30542;47.928;2.138;2023-02-23T06:54:23;100133.28;;;20.10;49.07
44825;BME280;30542;47.928;2.138;2023-02-23T06:59:23;100157.88;;;20.18;48.93
44825;BME280;30542;47.928;2.138;2023-02-23T07:04:23;100156.78;;;20.19;48.78
44825;BME280;30542;47.928;2.138;2023-02-23T07:09:25;100151.75;;;20.12;48.47
44825;BME280;30542;47.928;2.138;2023-02-23T07:14:25;100169.13;;;20.20;48.41
44825;BME280;30542;47.928;2.138;2023-02-23T07:19:26;100164.81;;;20.19;48.61
44825;BME280;30542;47.928;2.138;2023-02-23T07:24:26;100171.78;;;20.20;48.69
44825;BME280;30542;47.928;2.138;2023-02-23T07:29:27;100175.00;;;20.22;49.39
44825;BME280;30542;47.928;2.138;2023-02-23T07:34:27;100175.78;;;20.17;49.82
44825;BME280;30542;47.928;2.138;2023-02-23T07:39:28;100189.44;;;20.26;50.17
44825;BME280;30542;47.928;2.138;2023-02-23T07:44:28;100190.22;;;20.26;50.08
44825;BME280;30542;47.928;2.138;2023-02-23T07:49:29;100185.41;;;20.23;50.37
44825;BME280;30542;47.928;2.138;2023-02-23T07:54:29;100192.63;;;20.28;50.36
44825;BME280;30542;47.928;2.138;2023-02-23T07:59:30;100194.50;;;20.27;50.74
44825;BME280;30542;47.928;2.138;2023-02-23T08:04:31;100184.88;;;20.26;51.20
44825;BME280;30542;47.928;2.138;2023-02-23T08:09:32;100195.84;;;20.30;51.24
44825;BME280;30542;47.928;2.138;2023-02-23T08:14:34;100197.44;;;20.31;51.28
44825;BME280;30542;47.928;2.138;2023-02-23T08:19:34;100196.38;;;20.27;51.46
44825;BME280;30542;47.928;2.138;2023-02-23T08:24:35;100209.22;;;20.30;51.56
44825;BME280;30542;47.928;2.138;2023-02-23T08:29:36;100201.47;;;20.28;51.31
44825;BME280;30542;47.928;2.138;2023-02-23T08:34:38;100211.88;;;20.30;51.35
44825;BME280;30542;47.928;2.138;2023-02-23T08:39:38;100207.88;;;20.27;51.28
44825;BME280;30542;47.928;2.138;2023-02-23T08:44:38;100211.88;;;20.30;51.39
44825;BME280;30542;47.928;2.138;2023-02-23T08:49:39;100209.22;;;20.30;51.40
44825;BME280;30542;47.928;2.138;2023-02-23T08:54:39;100215.38;;;20.30;51.36
44825;BME280;30542;47.928;2.138;2023-02-23T08:59:39;100218.84;;;20.31;51.22
44825;BME280;30542;47.928;2.138;2023-02-23T09:04:40;100221.50;;;20.31;51.30
44825;BME280;30542;47.928;2.138;2023-02-23T09:09:41;100219.91;;;20.30;51.32
44825;BME280;30542;47.928;2.138;2023-02-23T09:14:41;100217.25;;;20.30;51.01
44825;BME280;30542;47.928;2.138;2023-02-23T09:19:41;100216.16;;;20.31;51.00
44825;BME280;30542;47.928;2.138;2023-02-23T09:24:43;100219.63;;;20.31;51.23
44825;BME280;30542;47.928;2.138;2023-02-23T09:29:43;100214.56;;;20.30;51.53
44825;BME280;30542;47.928;2.138;2023-02-23T09:34:44;100210.56;;;20.32;52.16
44825;BME280;30542;47.928;2.138;2023-02-23T09:39:44;100213.50;;;20.31;52.31
44825;BME280;30542;47.928;2.138;2023-02-23T09:45:10;100209.75;;;20.27;52.11
44825;BME280;30542;47.928;2.138;2023-02-23T09:50:19;100206.00;;;20.23;52.09
44825;BME280;30542;47.928;2.138;2023-02-23T09:55:21;100210.31;;;20.24;52.23
44825;BME280;30542;47.928;2.138;2023-02-23T10:00:24;100202.00;;;20.25;52.17
44825;BME280;30542;47.928;2.138;2023-02-23T10:05:29;100202.78;;;20.26;51.94
44825;BME280;30542;47.928;2.138;2023-02-23T10:10:44;100191.59;;;20.24;51.75
44825;BME280;30542;47.928;2.138;2023-02-23T10:15:51;100196.38;;;20.27;51.78
44825;BME280;30542;47.928;2.138;2023-02-23T10:21:20;100192.09;;;20.26;51.78
44825;BME280;30542;47.928;2.138;2023-02-23T10:26:25;100191.03;;;20.27;51.72
44825;BME280;30542;47.928;2.138;2023-02-23T10:36:40;100194.25;;;20.29;51.65
44825;BME280;30542;47.928;2.138;2023-02-23T10:41:43;100183.28;;;20.30;51.56
44825;BME280;30542;47.928;2.138;2023-02-23T10:46:49;100181.94;;;20.33;51.46
44825;BME280;30542;47.928;2.138;2023-02-23T10:51:50;100186.22;;;20.34;51.34
44825;BME280;30542;47.928;2.138;2023-02-23T10:56:52;100177.09;;;20.35;51.28
44825;BME280;30542;47.928;2.138;2023-02-23T11:01:52;100178.19;;;20.39;51.23
44825;BME280;30542;47.928;2.138;2023-02-23T11:07:26;100178.72;;;20.41;51.01
44825;BME280;30542;47.928;2.138;2023-02-23T11:12:37;100195.28;;;20.43;50.99
44825;BME280;30542;47.928;2.138;2023-02-23T11:17:39;100187.81;;;20.45;50.94
44825;BME280;30542;47.928;2.138;2023-02-23T11:22:40;100189.41;;;20.46;51.01
44825;BME280;30542;47.928;2.138;2023-02-23T11:27:46;100203.34;;;20.48;51.11
44825;BME280;30542;47.928;2.138;2023-02-23T11:32:56;100193.47;;;20.49;51.03
44825;BME280;30542;47.928;2.138;2023-02-23T11:37:57;100180.88;;;20.49;51.06
44825;BME280;30542;47.928;2.138;2023-02-23T11:43:12;100198.81;;;20.49;50.97
44825;BME280;30542;47.928;2.138;2023-02-23T11:48:24;100189.97;;;20.48;50.99
44825;BME280;30542;47.928;2.138;2023-02-23T11:53:33;100179.50;;;20.47;51.08
44825;BME280;30542;47.928;2.138;2023-02-23T12:03:55;100149.81;;;20.48;51.05
44825;BME280;30542;47.928;2.138;2023-02-23T12:09:01;100152.25;;;20.50;50.84
44825;BME280;30542;47.928;2.138;2023-02-23T12:19:28;100154.94;;;20.50;51.04
44825;BME280;30542;47.928;2.138;2023-02-23T12:24:49;100153.84;;;20.51;50.98
44825;BME280;30542;47.928;2.138;2023-02-23T12:29:58;100139.38;;;20.52;50.92
44825;BME280;30542;47.928;2.138;2023-02-23T12:40:16;100133.78;;;20.53;50.78
44825;BME280;30542;47.928;2.138;2023-02-23T12:45:34;100125.75;;;20.53;50.78
44825;BME280;30542;47.928;2.138;2023-02-23T12:50:43;100119.88;;;20.51;50.79
44825;BME280;30542;47.928;2.138;2023-02-23T13:01:04;100110.50;;;20.54;50.68
44825;BME280;30542;47.928;2.138;2023-02-23T13:06:11;100091.75;;;20.44;50.71
44825;BME280;30542;47.928;2.138;2023-02-23T13:16:23;100092.56;;;20.54;50.52
44825;BME280;30542;47.928;2.138;2023-02-23T13:21:39;100074.66;;;20.50;50.44
44825;BME280;30542;47.928;2.138;2023-02-23T13:27:04;100082.69;;;20.50;50.55
44825;BME280;30542;47.928;2.138;2023-02-23T13:32:28;100068.47;;;20.44;50.52
44825;BME280;30542;47.928;2.138;2023-02-23T13:37:41;100075.97;;;20.42;50.53
44825;BME280;30542;47.928;2.138;2023-02-23T13:48:23;100060.50;;;20.29;50.46
44825;BME280;30542;47.928;2.138;2023-02-23T13:53:36;100067.47;;;20.30;50.65
44825;BME280;30542;47.928;2.138;2023-02-23T13:58:45;100076.53;;;20.34;50.50
44825;BME280;30542;47.928;2.138;2023-02-23T14:03:51;100077.63;;;20.33;50.59
44825;BME280;30542;47.928;2.138;2023-02-23T14:09:20;100085.91;;;20.31;50.18
44825;BME280;30542;47.928;2.138;2023-02-23T14:19:34;100072.81;;;20.25;49.26
44825;BME280;30542;47.928;2.138;2023-02-23T14:24:35;100070.16;;;20.25;49.29
44825;BME280;30542;47.928;2.138;2023-02-23T14:29:40;100055.44;;;20.22;49.37
44825;BME280;30542;47.928;2.138;2023-02-23T14:39:43;100050.34;;;20.26;49.49
44825;BME280;30542;47.928;2.138;2023-02-23T14:44:45;100061.06;;;20.26;49.67
44825;BME280;30542;47.928;2.138;2023-02-23T14:49:54;100059.72;;;20.23;49.88
44825;BME280;30542;47.928;2.138;2023-02-23T15:05:15;100067.19;;;20.26;50.04
44825;BME280;30542;47.928;2.138;2023-02-23T15:10:37;100059.19;;;20.26;49.94
44825;BME280;30542;47.928;2.138;2023-02-23T15:15:44;100053.06;;;20.21;50.04
44825;BME280;30542;47.928;2.138;2023-02-23T15:20:46;100058.38;;;20.26;49.87
44825;BME280;30542;47.928;2.138;2023-02-23T15:25:47;100053.81;;;20.26;49.79
44825;BME280;30542;47.928;2.138;2023-02-23T15:30:52;100052.22;;;20.25;49.90
44825;BME280;30542;47.928;2.138;2023-02-23T15:36:07;100047.97;;;20.24;49.86
44825;BME280;30542;47.928;2.138;2023-02-23T15:41:34;100052.50;;;20.24;49.90
44825;BME280;30542;47.928;2.138;2023-02-23T15:46:35;100057.03;;;20.23;50.05
44825;BME280;30542;47.928;2.138;2023-02-23T15:51:39;100055.44;;;20.22;49.95
44825;BME280;30542;47.928;2.138;2023-02-23T15:56:49;100050.09;;;20.22;50.02
44825;BME280;30542;47.928;2.138;2023-02-23T16:01:53;100052.78;;;20.22;50.11
44825;BME280;30542;47.928;2.138;2023-02-23T16:07:20;100035.63;;;20.23;49.93
44825;BME280;30542;47.928;2.138;2023-02-23T16:12:24;100044.50;;;20.24;49.99
44825;BME280;30542;47.928;2.138;2023-02-23T16:17:43;100039.16;;;20.24;49.73
44825;BME280;30542;47.928;2.138;2023-02-23T16:22:44;100034.84;;;20.23;49.78
44825;BME280;30542;47.928;2.138;2023-02-23T16:27:53;100027.91;;;20.22;50.04
44825;BME280;30542;47.928;2.138;2023-02-23T16:43:24;100024.44;;;20.11;49.49
44825;BME280;30542;47.928;2.138;2023-02-23T16:48:24;100042.63;;;20.14;49.57
44825;BME280;30542;47.928;2.138;2023-02-23T16:53:25;100048.78;;;20.15;49.49
44825;BME280;30542;47.928;2.138;2023-02-23T16:58:26;100051.72;;;20.13;50.09
44825;BME280;30542;47.928;2.138;2023-02-23T17:03:29;100046.66;;;20.11;50.02
44825;BME280;30542;47.928;2.138;2023-02-23T17:08:30;100039.97;;;20.09;50.23
44825;BME280;30542;47.928;2.138;2023-02-23T17:13:31;100024.19;;;20.02;50.51
44825;BME280;30542;47.928;2.138;2023-02-23T17:18:34;100030.59;;;20.06;50.57
44825;BME280;30542;47.928;2.138;2023-02-23T17:23:36;100029.00;;;20.05;50.54
44825;BME280;30542;47.928;2.138;2023-02-23T17:28:38;100041.84;;;20.08;50.47
44825;BME280;30542;47.928;2.138;2023-02-23T17:33:40;100037.56;;;20.13;50.17
44825;BME280;30542;47.928;2.138;2023-02-23T17:38:41;100044.50;;;20.14;50.10
44825;BME280;30542;47.928;2.138;2023-02-23T17:43:43;100044.22;;;20.15;50.27
44825;BME280;30542;47.928;2.138;2023-02-23T17:48:43;100041.81;;;20.14;50.34
44825;BME280;30542;47.928;2.138;2023-02-23T17:53:46;100046.09;;;20.20;49.83
44825;BME280;30542;47.928;2.138;2023-02-23T17:58:46;100046.34;;;20.23;49.44
44825;BME280;30542;47.928;2.138;2023-02-23T18:03:47;100057.88;;;20.24;49.46
44825;BME280;30542;47.928;2.138;2023-02-23T18:08:48;100064.00;;;20.24;49.28
44825;BME280;30542;47.928;2.138;2023-02-23T18:13:49;100059.47;;;20.25;49.08
44825;BME280;30542;47.928;2.138;2023-02-23T18:18:52;100062.13;;;20.25;49.36
44825;BME280;30542;47.928;2.138;2023-02-23T18:23:54;100071.75;;;20.26;49.23
44825;BME280;30542;47.928;2.138;2023-02-23T18:28:54;100073.91;;;20.24;48.90
44825;BME280;30542;47.928;2.138;2023-02-23T18:33:56;100081.38;;;20.27;48.80
44825;BME280;30542;47.928;2.138;2023-02-23T18:38:59;100082.97;;;20.28;48.76
44825;BME280;30542;47.928;2.138;2023-02-23T18:44:02;100083.50;;;20.30;48.88
44825;BME280;30542;47.928;2.138;2023-02-23T18:49:03;100084.31;;;20.30;48.94
44825;BME280;30542;47.928;2.138;2023-02-23T18:54:05;100087.53;;;20.32;48.76
44825;BME280;30542;47.928;2.138;2023-02-23T18:59:11;100086.69;;;20.32;48.93
44825;BME280;30542;47.928;2.138;2023-02-23T19:04:11;100089.91;;;20.34;48.98
44825;BME280;30542;47.928;2.138;2023-02-23T19:09:12;100082.97;;;20.33;49.06
44825;BME280;30542;47.928;2.138;2023-02-23T19:14:15;100075.47;;;20.35;48.86
44825;BME280;30542;47.928;2.138;2023-02-23T19:19:15;100079.72;;;20.36;48.71
44825;BME280;30542;47.928;2.138;2023-02-23T19:24:16;100072.28;;;20.33;48.63
44825;BME280;30542;47.928;2.138;2023-02-23T19:29:16;100081.09;;;20.33;48.64
44825;BME280;30542;47.928;2.138;2023-02-23T19:34:17;100087.78;;;20.31;48.81
44825;BME280;30542;47.928;2.138;2023-02-23T19:39:17;100081.91;;;20.29;48.76
44825;BME280;30542;47.928;2.138;2023-02-23T19:44:19;100070.94;;;20.25;48.80
44825;BME280;30542;47.928;2.138;2023-02-23T19:49:19;100073.09;;;20.23;48.96
44825;BME280;30542;47.928;2.138;2023-02-23T19:54:20;100064.56;;;20.16;49.21
44825;BME280;30542;47.928;2.138;2023-02-23T19:59:20;100076.03;;;20.22;49.18
44825;BME280;30542;47.928;2.138;2023-02-23T20:04:20;100079.00;;;20.20;49.04
44825;BME280;30542;47.928;2.138;2023-02-23T20:09:21;100069.66;;;20.13;49.29
44825;BME280;30542;47.928;2.138;2023-02-23T20:14:21;100073.38;;;20.17;49.21
44825;BME280;30542;47.928;2.138;2023-02-23T20:19:24;100073.38;;;20.17;49.07
44825;BME280;30542;47.928;2.138;2023-02-23T20:24:25;100080.84;;;20.15;49.16
44825;BME280;30542;47.928;2.138;2023-02-23T20:29:25;100087.84;;;20.16;49.48
44825;BME280;30542;47.928;2.138;2023-02-23T20:34:27;100093.19;;;20.16;49.55
44825;BME280;30542;47.928;2.138;2023-02-23T20:39:31;100096.66;;;20.16;49.28
44825;BME280;30542;47.928;2.138;2023-02-23T20:44:31;100093.97;;;20.16;49.41
44825;BME280;30542;47.928;2.138;2023-02-23T20:49:32;100103.59;;;20.17;49.11
44825;BME280;30542;47.928;2.138;2023-02-23T20:54:33;100110.53;;;20.18;49.32
44825;BME280;30542;47.928;2.138;2023-02-23T20:59:34;100103.31;;;20.19;49.17
44825;BME280;30542;47.928;2.138;2023-02-23T21:04:37;100111.88;;;20.21;48.95
44825;BME280;30542;47.928;2.138;2023-02-23T21:09:38;100100.91;;;20.17;48.92
44825;BME280;30542;47.928;2.138;2023-02-23T21:14:39;100094.75;;;20.22;48.88
44825;BME280;30542;47.928;2.138;2023-02-23T21:19:40;100092.09;;;20.22;48.83
44825;BME280;30542;47.928;2.138;2023-02-23T21:24:41;100094.47;;;20.23;48.81
44825;BME280;30542;47.928;2.138;2023-02-23T21:29:43;100095.31;;;20.24;48.95
44825;BME280;30542;47.928;2.138;2023-02-23T21:34:43;100085.41;;;20.24;48.90
44825;BME280;30542;47.928;2.138;2023-02-23T21:39:45;100087.00;;;20.25;48.79
44825;BME280;30542;47.928;2.138;2023-02-23T21:44:46;100080.84;;;20.25;48.77
44825;BME280;30542;47.928;2.138;2023-02-23T21:49:47;100091.56;;;20.25;49.01
44825;BME280;30542;47.928;2.138;2023-02-23T21:54:51;100085.69;;;20.18;48.76
44825;BME280;30542;47.928;2.138;2023-02-23T21:59:52;100084.88;;;20.17;48.93
44825;BME280;30542;47.928;2.138;2023-02-23T22:04:52;100091.56;;;20.15;48.91
44825;BME280;30542;47.928;2.138;2023-02-23T22:09:53;100090.50;;;20.10;49.05
44825;BME280;30542;47.928;2.138;2023-02-23T22:14:53;100088.38;;;20.07;49.16
44825;BME280;30542;47.928;2.138;2023-02-23T22:19:53;100091.31;;;20.01;48.90
44825;BME280;30542;47.928;2.138;2023-02-23T22:24:54;100090.50;;;20.00;49.21
44825;BME280;30542;47.928;2.138;2023-02-23T22:29:55;100082.22;;;19.97;49.27
44825;BME280;30542;47.928;2.138;2023-02-23T22:34:59;100079.00;;;19.95;49.23
44825;BME280;30542;47.928;2.138;2023-02-23T22:40:00;100081.44;;;19.91;49.33
44825;BME280;30542;47.928;2.138;2023-02-23T22:45:29;100063.53;;;19.86;49.31
44825;BME280;30542;47.928;2.138;2023-02-23T22:50:29;100065.94;;;19.83;49.48
44825;BME280;30542;47.928;2.138;2023-02-23T22:55:30;100056.31;;;19.77;49.35
44825;BME280;30542;47.928;2.138;2023-02-23T23:00:30;100048.28;;;19.77;49.47
44825;BME280;30542;47.928;2.138;2023-02-23T23:05:31;100050.97;;;19.77;49.26
44825;BME280;30542;47.928;2.138;2023-02-23T23:10:31;100050.44;;;19.75;49.46
44825;BME280;30542;47.928;2.138;2023-02-23T23:15:32;100041.88;;;19.73;49.29
44825;BME280;30542;47.928;2.138;2023-02-23T23:20:32;100044.28;;;19.69;49.51
44825;BME280;30542;47.928;2.138;2023-02-23T23:25:33;100040.81;;;19.69;49.23
44825;BME280;30542;47.928;2.138;2023-02-23T23:30:36;100040.81;;;19.69;49.38
44825;BME280;30542;47.928;2.138;2023-02-23T23:35:37;100027.97;;;19.60;49.00
44825;BME280;30542;47.928;2.138;2023-02-23T23:40:37;100053.38;;;19.63;49.42
44825;BME280;30542;47.928;2.138;2023-02-23T23:45:38;100042.41;;;19.54;49.27
44825;BME280;30542;47.928;2.138;2023-02-23T23:50:39;100048.81;;;19.53;49.04
44825;BME280;30542;47.928;2.138;2023-02-23T23:55:39;100052.03;;;19.55;49.27
